createdAt,value
2023-03-30T00:00:57.898Z,99.90
2023-03-30T00:03:27.529Z,99.90
2023-03-30T00:05:58.954Z,99.90
2023-03-30T00:08:29.508Z,99.90
2023-03-30T00:11:01.985Z,99.90
2023-03-30T00:13:29.907Z,99.90
2023-03-30T00:15:57.268Z,99.90
2023-03-30T00:18:24.984Z,99.90
2023-03-30T00:20:52.951Z,99.90
2023-03-30T00:25:48.572Z,99.90
2023-03-30T00:28:15.737Z,99.90
2023-03-30T00:40:35.726Z,1.00
2023-03-30T00:43:07.929Z,1.00
2023-03-30T00:45:37.075Z,1.00
2023-03-30T00:48:39.033Z,1.00
2023-03-30T00:51:10.822Z,17.90
2023-03-30T00:53:46.158Z,99.90
2023-03-30T00:56:17.608Z,99.90
2023-03-30T00:58:45.340Z,99.90
2023-03-30T01:01:18.935Z,99.90
2023-03-30T01:03:48.440Z,99.90
2023-03-30T01:06:24.349Z,99.90
2023-03-30T01:08:53.198Z,8.50
2023-03-30T01:13:52.795Z,1.00
2023-03-30T01:16:43.544Z,1.00
2023-03-30T01:19:36.116Z,1.00
2023-03-30T01:22:13.125Z,1.00
2023-03-30T01:24:49.344Z,1.00
2023-03-30T01:27:46.073Z,19.40
2023-03-30T01:30:25.136Z,45.40
2023-03-30T01:33:04.602Z,33.10
2023-03-30T01:35:41.077Z,99.90
2023-03-30T01:38:16.273Z,99.90
2023-03-30T01:40:52.301Z,1.00
2023-03-30T01:43:35.467Z,1.00
2023-03-30T01:46:16.003Z,1.00
2023-03-30T01:49:12.419Z,1.00
2023-03-30T01:52:04.811Z,1.00
2023-03-30T01:54:35.911Z,1.00
2023-03-30T01:57:19.603Z,1.00
2023-03-30T01:59:56.537Z,26.20
2023-03-30T02:02:28.815Z,99.90
2023-03-30T02:04:59.326Z,99.90
2023-03-30T02:07:32.115Z,1.00
2023-03-30T02:10:02.078Z,1.00
2023-03-30T02:12:30.912Z,99.90
2023-03-30T02:15:03.296Z,99.90
2023-03-30T02:19:59.729Z,1.00
2023-03-30T02:22:29.501Z,40.60
2023-03-30T02:24:58.430Z,99.90
2023-03-30T02:27:27.122Z,99.90
2023-03-30T02:29:56.431Z,99.90
2023-03-30T02:32:27.736Z,99.90
2023-03-30T02:35:18.841Z,99.90
2023-03-30T02:37:53.612Z,99.90
2023-03-30T02:40:21.198Z,99.90
2023-03-30T02:43:05.636Z,99.90
2023-03-30T02:48:09.481Z,99.90
2023-03-30T02:50:58.003Z,99.90
2023-03-30T02:53:36.001Z,99.90
2023-03-30T02:56:19.317Z,99.90
2023-03-30T02:59:06.082Z,99.90
2023-03-30T03:04:05.996Z,99.90
2023-03-30T03:11:29.015Z,1.00
2023-03-30T03:16:24.086Z,5.60
2023-03-30T03:31:13.430Z,38.10
2023-03-30T03:36:09.011Z,44.30
2023-03-30T03:41:05.205Z,45.10
2023-03-30T03:43:32.478Z,68.00
2023-03-30T03:48:27.949Z,86.60
2023-03-30T03:50:57.857Z,99.90
2023-03-30T03:53:27.666Z,99.90
2023-03-30T03:55:55.704Z,99.90
2023-03-30T04:03:18.300Z,99.90
2023-03-30T04:10:41.741Z,1.00
2023-03-30T04:15:36.766Z,27.70
2023-03-30T04:20:33.183Z,99.90
2023-03-30T04:23:01.928Z,99.90
2023-03-30T04:25:29.632Z,99.90
2023-03-30T04:27:57.223Z,99.90
2023-03-30T04:30:24.897Z,99.90
2023-03-30T04:33:03.402Z,99.90
2023-03-30T04:35:33.171Z,99.90
2023-03-30T04:38:02.189Z,99.90
2023-03-30T04:40:30.216Z,99.90
2023-03-30T04:43:02.200Z,99.90
2023-03-30T04:45:32.392Z,99.90
2023-03-30T04:47:59.674Z,99.90
2023-03-30T04:50:27.144Z,99.90
2023-03-30T04:55:21.972Z,99.90
2023-03-30T05:05:12.412Z,96.60
2023-03-30T05:10:07.909Z,95.70
2023-03-30T05:15:02.860Z,99.90
2023-03-30T05:17:34.066Z,99.90
2023-03-30T05:32:20.819Z,99.90
2023-03-30T05:34:48.485Z,99.90
2023-03-30T05:42:12.219Z,99.90
2023-03-30T05:44:39.515Z,99.90
2023-03-30T05:52:01.864Z,99.90
2023-03-30T05:54:29.154Z,99.90
2023-03-30T05:59:24.482Z,99.90
2023-03-30T06:09:14.367Z,99.90
2023-03-30T06:11:41.410Z,99.90
2023-03-30T06:14:10.596Z,99.90
2023-03-30T06:16:37.948Z,99.90
2023-03-30T06:24:01.514Z,99.90
2023-03-30T06:33:52.809Z,99.90
2023-03-30T06:38:48.857Z,99.90
2023-03-30T06:41:15.899Z,99.90
2023-03-30T06:51:08.783Z,99.90
2023-03-30T06:56:11.697Z,99.90
2023-03-30T06:58:39.267Z,99.90
2023-03-30T07:01:14.180Z,99.90
2023-03-30T07:03:42.041Z,99.90
2023-03-30T07:06:10.549Z,99.90
2023-03-30T07:08:38.714Z,99.90
2023-03-30T07:11:07.062Z,99.90
2023-03-30T07:13:35.062Z,99.90
2023-03-30T07:16:02.332Z,99.90
2023-03-30T07:18:29.722Z,99.90
2023-03-30T07:20:59.361Z,99.90
2023-03-30T07:23:27.236Z,99.90
2023-03-30T07:25:54.242Z,99.90
2023-03-30T07:28:22.471Z,99.90
2023-03-30T07:30:49.767Z,99.90
2023-03-30T07:33:17.386Z,99.90
2023-03-30T07:35:48.022Z,99.90
2023-03-30T07:38:16.297Z,99.90
2023-03-30T07:40:43.501Z,99.90
2023-03-30T07:43:11.690Z,99.90
2023-03-30T07:45:38.897Z,99.90
2023-03-30T07:48:07.081Z,99.90
2023-03-30T07:50:34.717Z,99.90
2023-03-30T07:53:02.370Z,99.90
2023-03-30T07:55:30.143Z,99.90
2023-03-30T07:58:00.872Z,92.80
2023-03-30T08:00:28.051Z,81.30
2023-03-30T08:02:55.641Z,69.00
2023-03-30T08:05:22.767Z,62.50
2023-03-30T08:07:50.443Z,57.40
2023-03-30T08:10:17.543Z,1.00
2023-03-30T08:12:45.006Z,1.00
2023-03-30T08:15:12.754Z,1.00
2023-03-30T08:17:40.212Z,1.00
2023-03-30T08:20:10.952Z,1.00
2023-03-30T08:22:38.756Z,1.00
2023-03-30T08:25:06.229Z,1.00
2023-03-30T08:27:34.133Z,1.00
2023-03-30T08:30:02.209Z,1.00
2023-03-30T08:32:30.031Z,1.00
2023-03-30T08:34:57.326Z,1.00
2023-03-30T08:37:25.634Z,1.00
2023-03-30T08:39:53.062Z,1.00
2023-03-30T08:42:40.888Z,51.20
2023-03-30T08:45:12.499Z,76.60
2023-03-30T08:47:44.019Z,75.60
2023-03-30T08:50:35.181Z,75.10
2023-03-30T08:53:07.948Z,73.90
2023-03-30T08:55:53.773Z,75.60
2023-03-30T08:58:36.179Z,78.40
2023-03-30T09:01:45.197Z,79.40
2023-03-30T09:04:46.663Z,81.10
2023-03-30T09:07:23.596Z,83.30
2023-03-30T09:09:52.454Z,84.60
2023-03-30T09:12:41.776Z,86.60
2023-03-30T09:15:29.009Z,87.80
2023-03-30T09:18:09.858Z,89.50
2023-03-30T09:20:40.484Z,89.40
2023-03-30T09:23:13.843Z,87.30
2023-03-30T09:25:54.488Z,87.20
2023-03-30T09:28:33.836Z,86.40
2023-03-30T09:31:08.800Z,87.20
2023-03-30T09:33:43.615Z,82.90
2023-03-30T09:36:31.529Z,68.90
2023-03-30T09:38:58.541Z,1.00
2023-03-30T09:41:51.587Z,1.00
2023-03-30T09:44:31.721Z,1.00
2023-03-30T09:47:01.196Z,1.00
2023-03-30T09:49:29.749Z,1.00
2023-03-30T09:52:08.526Z,1.00
2023-03-30T09:54:37.435Z,1.00
2023-03-30T09:57:35.935Z,1.00
2023-03-30T10:00:27.803Z,1.00
2023-03-30T10:03:04.479Z,1.00
2023-03-30T10:05:34.552Z,1.00
2023-03-30T10:08:17.872Z,1.00
2023-03-30T10:10:45.350Z,73.10
2023-03-30T10:13:16.342Z,76.30
2023-03-30T10:15:46.538Z,76.20
2023-03-30T10:18:27.734Z,76.80
2023-03-30T10:21:13.202Z,75.50
2023-03-30T10:23:43.327Z,76.10
2023-03-30T10:26:19.160Z,76.20
2023-03-30T10:28:53.806Z,75.80
2023-03-30T10:31:22.895Z,75.80
2023-03-30T10:33:59.604Z,77.40
2023-03-30T10:36:37.384Z,78.50
2023-03-30T10:39:27.318Z,79.80
2023-03-30T10:41:56.753Z,77.80
2023-03-30T10:44:32.479Z,78.20
2023-03-30T10:47:14.598Z,77.40
2023-03-30T10:50:08.237Z,77.90
2023-03-30T10:52:58.887Z,78.00
2023-03-30T10:55:49.886Z,79.80
2023-03-30T10:58:35.476Z,82.70
2023-03-30T11:01:17.637Z,85.40
2023-03-30T11:03:51.396Z,86.60
2023-03-30T11:06:32.629Z,87.20
2023-03-30T11:09:03.974Z,85.10
2023-03-30T11:11:44.786Z,85.30
2023-03-30T11:14:49.283Z,86.30
2023-03-30T11:17:55.356Z,87.40
2023-03-30T11:20:29.012Z,88.70
2023-03-30T11:23:21.755Z,88.30
2023-03-30T11:26:05.524Z,87.70
2023-03-30T11:28:39.338Z,87.60
2023-03-30T11:31:27.491Z,84.90
2023-03-30T11:34:10.779Z,83.00
2023-03-30T11:37:06.508Z,82.90
2023-03-30T11:39:36.757Z,82.70
2023-03-30T11:42:31.372Z,80.40
2023-03-30T11:45:17.183Z,80.60
2023-03-30T11:47:47.331Z,82.50
2023-03-30T11:50:29.901Z,81.80
2023-03-30T11:53:11.468Z,80.70
2023-03-30T11:56:06.483Z,80.50
2023-03-30T11:58:57.868Z,81.40
2023-03-30T12:01:40.569Z,81.80
2023-03-30T12:04:17.282Z,82.50
2023-03-30T12:07:00.619Z,83.50
2023-03-30T12:09:45.398Z,84.10
2023-03-30T12:12:19.216Z,82.60
2023-03-30T12:14:55.723Z,81.50
2023-03-30T12:17:48.150Z,83.00
2023-03-30T12:20:44.114Z,82.50
2023-03-30T12:23:45.311Z,83.70
2023-03-30T12:26:25.774Z,83.40
2023-03-30T12:31:59.104Z,85.00
2023-03-30T12:34:30.301Z,85.30
2023-03-30T12:37:05.711Z,86.70
2023-03-30T12:39:45.083Z,89.30
2023-03-30T12:42:28.149Z,90.20
2023-03-30T12:45:21.903Z,90.70
2023-03-30T12:48:10.454Z,92.50
2023-03-30T12:51:10.443Z,95.10
2023-03-30T12:54:08.388Z,97.00
2023-03-30T12:56:49.575Z,98.40
2023-03-30T12:59:44.200Z,98.70
2023-03-30T13:02:35.923Z,98.80
2023-03-30T13:05:04.566Z,98.90
2023-03-30T13:07:36.397Z,98.80
2023-03-30T13:10:23.856Z,99.90
2023-03-30T13:12:51.492Z,99.90
2023-03-30T13:15:42.117Z,99.90
2023-03-30T13:18:09.407Z,99.90
2023-03-30T13:20:58.525Z,99.90
2023-03-30T13:23:32.695Z,99.90
2023-03-30T13:26:07.878Z,99.90
2023-03-30T13:29:07.985Z,99.90
2023-03-30T13:31:47.002Z,99.90
2023-03-30T13:34:36.127Z,99.90
2023-03-30T13:37:09.433Z,99.90
2023-03-30T13:40:07.346Z,99.90
2023-03-30T13:42:51.386Z,99.90
2023-03-30T13:46:00.421Z,99.90
2023-03-30T13:49:13.315Z,99.90
2023-03-30T13:51:42.587Z,99.90
2023-03-30T13:54:21.537Z,99.90
2023-03-30T13:56:57.143Z,99.90
2023-03-30T13:59:29.220Z,99.90
2023-03-30T14:01:59.693Z,99.90
2023-03-30T14:04:37.405Z,99.90
2023-03-30T14:07:16.195Z,99.90
2023-03-30T14:09:44.581Z,99.90
2023-03-30T14:12:13.843Z,99.90
2023-03-30T14:14:47.476Z,99.90
2023-03-30T14:17:23.800Z,99.90
2023-03-30T14:20:15.519Z,99.90
2023-03-30T14:22:46.312Z,99.90
2023-03-30T14:25:42.586Z,99.90
2023-03-30T14:28:14.749Z,99.90
2023-03-30T14:30:52.831Z,99.90
2023-03-30T14:33:21.927Z,99.90
2023-03-30T14:35:56.723Z,99.90
2023-03-30T14:38:37.266Z,99.90
2023-03-30T14:41:24.921Z,99.90
2023-03-30T14:44:03.019Z,99.90
2023-03-30T14:46:39.859Z,99.90
2023-03-30T14:49:08.583Z,99.90
2023-03-30T14:51:41.534Z,99.90
2023-03-30T14:54:23.131Z,99.90
2023-03-30T14:56:57.944Z,99.90
2023-03-30T14:59:28.235Z,99.90
2023-03-30T15:01:56.528Z,99.90
2023-03-30T15:04:36.807Z,99.90
2023-03-30T15:07:05.055Z,99.90
2023-03-30T15:09:38.597Z,99.90
2023-03-30T15:12:06.396Z,99.90
2023-03-30T15:14:40.349Z,99.90
2023-03-30T15:17:21.731Z,99.90
2023-03-30T15:19:52.118Z,99.90
2023-03-30T15:22:39.090Z,99.90
2023-03-30T15:25:12.031Z,99.90
2023-03-30T15:27:42.281Z,99.90
2023-03-30T15:30:31.193Z,99.90
2023-03-30T15:32:58.642Z,99.90
2023-03-30T15:35:36.508Z,99.90
2023-03-30T15:38:17.024Z,99.90
2023-03-30T15:40:50.186Z,99.90
2023-03-30T15:43:27.613Z,99.90
2023-03-30T15:46:06.128Z,99.90
2023-03-30T15:48:43.228Z,99.90
2023-03-30T15:51:21.474Z,99.90
2023-03-30T15:53:55.184Z,99.90
2023-03-30T15:57:02.162Z,99.90
2023-03-30T15:59:35.595Z,99.90
2023-03-30T16:02:15.442Z,99.90
2023-03-30T16:04:42.652Z,99.90
2023-03-30T16:07:22.935Z,99.90
2023-03-30T16:09:50.289Z,99.90
2023-03-30T16:12:21.111Z,99.90
2023-03-30T16:14:48.990Z,99.90
2023-03-30T16:17:18.217Z,99.90
2023-03-30T16:19:45.950Z,99.90
2023-03-30T16:22:14.727Z,99.90
2023-03-30T16:24:42.226Z,99.90
2023-03-30T16:27:13.067Z,99.90
2023-03-30T16:29:40.148Z,99.90
2023-03-30T16:32:07.784Z,99.90
2023-03-30T16:34:35.087Z,99.90
2023-03-30T16:37:02.452Z,99.90
2023-03-30T16:39:30.073Z,99.90
2023-03-30T16:41:57.904Z,99.90
2023-03-30T16:44:25.502Z,99.90
2023-03-30T16:46:53.328Z,99.90
2023-03-30T16:49:25.869Z,99.90
2023-03-30T16:51:56.988Z,99.90
2023-03-30T16:54:31.850Z,99.90
2023-03-30T16:57:00.974Z,99.90
2023-03-30T16:59:30.620Z,99.90
2023-03-30T17:01:59.093Z,99.90
2023-03-30T17:04:26.794Z,99.90
2023-03-30T17:06:55.003Z,99.90
2023-03-30T17:09:22.581Z,99.90
2023-03-30T17:11:50.363Z,99.90
2023-03-30T17:14:17.906Z,99.90
2023-03-30T17:16:45.480Z,99.90
2023-03-30T17:19:13.891Z,99.90
2023-03-30T17:21:43.842Z,99.90
2023-03-30T17:24:12.821Z,99.90
2023-03-30T17:26:40.997Z,99.90
2023-03-30T17:29:09.287Z,99.90
2023-03-30T17:31:38.841Z,99.90
2023-03-30T17:34:07.253Z,99.90
2023-03-30T17:36:35.046Z,99.90
2023-03-30T17:39:04.946Z,99.90
2023-03-30T17:41:34.336Z,99.90
2023-03-30T17:44:01.308Z,99.90
2023-03-30T17:46:28.678Z,99.90
2023-03-30T17:48:56.004Z,99.90
2023-03-30T17:51:23.399Z,99.90
2023-03-30T17:53:50.611Z,99.90
2023-03-30T17:56:18.060Z,99.90
2023-03-30T17:58:45.348Z,99.90
2023-03-30T18:01:13.811Z,99.90
2023-03-30T18:03:41.175Z,99.90
2023-03-30T18:06:11.752Z,99.90
2023-03-30T18:08:39.703Z,99.90
2023-03-30T18:11:07.330Z,99.90
2023-03-30T18:13:34.725Z,99.90
2023-03-30T18:16:02.181Z,99.90
2023-03-30T18:18:30.852Z,99.90
2023-03-30T18:21:02.841Z,99.90
2023-03-30T18:23:31.633Z,99.90
2023-03-30T18:25:59.116Z,99.90
2023-03-30T18:28:27.709Z,99.90
2023-03-30T18:31:00.848Z,99.90
2023-03-30T18:33:28.524Z,99.90
2023-03-30T18:36:04.922Z,99.90
2023-03-30T18:38:33.379Z,99.90
2023-03-30T18:41:01.458Z,99.90
2023-03-30T18:43:28.809Z,99.90
2023-03-30T18:46:01.528Z,99.90
2023-03-30T18:48:29.168Z,99.90
2023-03-30T18:50:57.166Z,99.90
2023-03-30T18:53:27.337Z,99.90
2023-03-30T18:56:01.638Z,99.90
2023-03-30T18:58:33.797Z,99.90
2023-03-30T19:01:01.736Z,99.90
2023-03-30T19:03:30.091Z,99.90
2023-03-30T19:05:57.831Z,99.90
2023-03-30T19:08:26.535Z,99.90
2023-03-30T19:10:56.815Z,99.90
2023-03-30T19:13:25.821Z,99.90
2023-03-30T19:15:53.779Z,99.90
2023-03-30T19:18:20.962Z,99.90
2023-03-30T19:20:50.028Z,99.90
2023-03-30T19:23:18.109Z,99.90
2023-03-30T19:25:45.919Z,99.90
2023-03-30T19:28:14.597Z,99.90
2023-03-30T19:30:42.788Z,99.90
2023-03-30T19:33:12.436Z,99.90
2023-03-30T19:35:41.441Z,99.90
2023-03-30T19:38:09.237Z,99.90
2023-03-30T19:40:40.781Z,99.90
2023-03-30T19:43:07.999Z,99.90
2023-03-30T19:45:35.718Z,99.90
2023-03-30T19:48:02.770Z,99.90
2023-03-30T19:50:30.639Z,99.90
2023-03-30T19:52:57.792Z,99.90
2023-03-30T19:55:25.697Z,99.90
2023-03-30T19:57:52.800Z,99.90
2023-03-30T20:00:21.223Z,99.90
2023-03-30T20:02:53.632Z,99.90
2023-03-30T20:05:23.408Z,99.90
2023-03-30T20:07:51.273Z,99.90
2023-03-30T20:10:24.631Z,99.90
2023-03-30T20:12:52.905Z,99.90
2023-03-30T20:15:21.515Z,99.90
2023-03-30T20:17:48.665Z,99.90
2023-03-30T20:20:23.486Z,99.90
2023-03-30T20:22:53.547Z,99.90
2023-03-30T20:25:21.900Z,99.90
2023-03-30T20:27:49.373Z,99.90
2023-03-30T20:30:17.007Z,99.90
2023-03-30T20:32:50.412Z,99.90
2023-03-30T20:35:25.778Z,99.90
2023-03-30T20:37:52.930Z,99.90
2023-03-30T20:40:21.121Z,99.90
2023-03-30T20:42:48.114Z,99.90
2023-03-30T20:45:17.610Z,99.90
2023-03-30T20:47:50.161Z,99.90
2023-03-30T20:50:17.876Z,99.90
2023-03-30T20:52:44.822Z,99.90
2023-03-30T20:55:12.529Z,99.90
2023-03-30T20:57:39.534Z,99.90
2023-03-30T21:00:07.766Z,99.90
2023-03-30T21:02:34.802Z,99.90
2023-03-30T21:05:02.611Z,99.90
2023-03-30T21:07:29.903Z,99.90
2023-03-30T21:09:57.225Z,99.90
2023-03-30T21:12:24.154Z,99.90
2023-03-30T21:14:51.438Z,99.90
2023-03-30T21:17:18.631Z,99.90
2023-03-30T21:19:46.165Z,99.90
2023-03-30T21:22:13.251Z,99.90
2023-03-30T21:24:40.804Z,99.90
2023-03-30T21:29:36.012Z,99.90
2023-03-30T21:32:02.977Z,99.90
2023-03-30T21:34:30.703Z,99.90
2023-03-30T21:36:57.814Z,99.90
2023-03-30T21:39:25.523Z,99.90
2023-03-30T21:41:52.659Z,99.90
2023-03-30T21:44:20.460Z,99.90
2023-03-30T21:49:15.200Z,99.90
2023-03-30T21:51:42.184Z,99.90
2023-03-30T21:54:10.326Z,99.90
2023-03-30T21:56:37.384Z,99.90
2023-03-30T21:59:04.750Z,99.90
2023-03-30T22:01:31.892Z,99.90
2023-03-30T22:03:59.360Z,99.90
2023-03-30T22:06:26.571Z,99.90
2023-03-30T22:08:54.271Z,99.90
2023-03-30T22:11:23.872Z,99.90
2023-03-30T22:13:52.216Z,99.90
2023-03-30T22:16:22.766Z,99.90
2023-03-30T22:18:51.282Z,99.90
2023-03-30T22:21:21.586Z,99.90
2023-03-30T22:23:48.881Z,99.90
2023-03-30T22:26:16.371Z,99.90
2023-03-30T22:28:43.943Z,99.90
2023-03-30T22:31:13.796Z,99.90
2023-03-30T22:33:41.577Z,99.90
2023-03-30T22:36:23.833Z,99.90
2023-03-30T22:38:51.746Z,99.90
2023-03-30T22:41:23.605Z,99.90
2023-03-30T22:43:56.286Z,99.90
2023-03-30T22:46:25.055Z,99.90
2023-03-30T22:48:55.541Z,99.90
2023-03-30T22:51:26.571Z,99.90
2023-03-30T22:54:00.769Z,99.90
2023-03-30T22:56:30.029Z,99.90
2023-03-30T22:58:59.371Z,99.90
2023-03-30T23:01:29.163Z,99.90
2023-03-30T23:03:59.394Z,99.90
2023-03-30T23:06:26.593Z,99.90
2023-03-30T23:08:54.653Z,99.90
2023-03-30T23:11:21.700Z,99.90
2023-03-30T23:13:49.782Z,99.90
2023-03-30T23:16:16.869Z,99.90
2023-03-30T23:18:44.493Z,99.90
2023-03-30T23:21:14.084Z,99.90
2023-03-30T23:23:41.767Z,99.90
2023-03-30T23:26:10.540Z,99.90
2023-03-30T23:28:42.169Z,99.90
2023-03-30T23:31:14.641Z,99.90
2023-03-30T23:33:42.600Z,99.90
2023-03-30T23:36:13.612Z,99.90
2023-03-30T23:38:43.718Z,99.90
2023-03-30T23:41:13.731Z,99.90
2023-03-30T23:43:41.064Z,99.90
2023-03-30T23:46:09.895Z,99.90
2023-03-30T23:48:37.481Z,99.90
2023-03-30T23:51:05.091Z,99.90
2023-03-30T23:53:32.695Z,99.90
2023-03-30T23:56:00.127Z,99.90
2023-03-30T23:58:27.446Z,99.90
